Time;durP1;ratioP1;P1;durP2;ratioP2;P2;SDS_P1;SDS_P2;PMS_P1;PMS_P2;Temp;Humidity;BMP_temperature;BMP_pressure;BME280_temperature;BME280_humidity;BME280_pressure;Samples;Min_cycle;Max_cycle;Signal;HPM_P1;HPM_P2
2022/11/06 00:01:26;;;;;;;5.95;3.58;;;10.20;99.90;;;;;;5136719;27;20126;-66
2022/11/06 00:03:53;;;;;;;5.25;3.63;;;10.30;99.90;;;;;;5119515;27;20050;-66
2022/11/06 00:09:09;;;;;;;5.97;3.35;;;10.30;99.90;;;;;;5155053;27;20046;-66
2022/11/06 00:11:35;;;;;;;5.45;3.80;;;10.20;99.90;;;;;;5136484;27;20045;-66
2022/11/06 00:14:01;;;;;;;6.25;3.33;;;10.10;99.90;;;;;;5136180;27;20047;-66
2022/11/06 00:16:27;;;;;;;7.00;3.70;;;10.10;99.90;;;;;;5154676;27;20549;-66
2022/11/06 00:18:54;;;;;;;5.38;3.30;;;10.20;99.90;;;;;;5135637;27;20042;-66
2022/11/06 00:21:23;;;;;;;8.23;3.85;;;10.10;99.90;;;;;;5154756;27;20489;-66
2022/11/06 00:23:50;;;;;;;5.93;3.75;;;10.40;99.90;;;;;;5136156;27;20401;-66
2022/11/06 00:26:22;;;;;;;6.20;3.40;;;10.10;99.90;;;;;;5154753;27;20047;-66
2022/11/06 00:28:48;;;;;;;7.25;3.30;;;10.10;99.90;;;;;;5137494;27;20039;-66
2022/11/06 00:31:17;;;;;;;5.45;3.50;;;10.60;99.90;;;;;;5123066;27;20045;-66
2022/11/06 00:33:43;;;;;;;5.38;3.60;;;10.20;99.90;;;;;;5139992;27;20057;-66
2022/11/06 00:36:15;;;;;;;5.85;3.60;;;10.20;99.90;;;;;;5134675;27;20044;-66
2022/11/06 00:38:41;;;;;;;5.35;3.40;;;10.10;99.90;;;;;;5103042;27;20055;-66
2022/11/06 00:41:09;;;;;;;8.48;3.63;;;10.50;99.90;;;;;;5137710;27;20078;-67
2022/11/06 00:43:36;;;;;;;8.70;4.43;;;10.40;99.90;;;;;;5137486;27;20487;-66
2022/11/06 00:46:03;;;;;;;6.57;3.90;;;10.10;99.90;;;;;;5137266;27;20091;-66
2022/11/06 00:48:29;;;;;;;4.40;3.33;;;10.20;99.90;;;;;;5137363;27;20055;-66
2022/11/06 00:50:54;;;;;;;6.18;4.00;;;10.30;99.90;;;;;;5102180;27;20076;-66
2022/11/06 00:53:20;;;;;;;11.50;3.78;;;10.30;99.90;;;;;;5137520;27;20083;-67
2022/11/06 00:55:46;;;;;;;7.32;4.47;;;10.10;99.90;;;;;;5119203;27;20046;-66
2022/11/06 00:58:11;;;;;;;6.13;3.78;;;9.90;99.90;;;;;;5118222;27;20047;-67
2022/11/06 01:00:37;;;;;;;6.97;3.67;;;10.50;99.90;;;;;;5137116;27;20039;-66
2022/11/06 01:03:03;;;;;;;7.32;3.97;;;10.40;99.90;;;;;;5137257;27;20088;-66
2022/11/06 01:05:28;;;;;;;8.70;3.80;;;10.00;99.90;;;;;;5119020;27;20058;-67
2022/11/06 01:07:54;;;;;;;7.60;4.00;;;9.90;99.90;;;;;;5118088;28;20380;-67
2022/11/06 01:10:20;;;;;;;7.75;4.45;;;9.90;99.90;;;;;;5137026;27;20119;-67
2022/11/06 01:12:45;;;;;;;10.05;4.38;;;10.00;99.90;;;;;;5118260;27;20050;-66
2022/11/06 01:15:11;;;;;;;6.00;4.32;;;10.20;99.90;;;;;;5136874;27;20047;-66
2022/11/06 01:17:37;;;;;;;6.68;4.45;;;10.00;99.90;;;;;;5118750;27;20546;-67
2022/11/06 01:20:04;;;;;;;7.28;4.28;;;10.00;99.90;;;;;;5136766;27;20047;-66
2022/11/06 01:22:29;;;;;;;10.70;4.47;;;9.90;99.90;;;;;;5136761;27;20043;-67
2022/11/06 01:24:55;;;;;;;7.95;4.43;;;9.90;99.90;;;;;;5136821;27;20043;-66
2022/11/06 01:27:21;;;;;;;6.95;4.70;;;9.80;99.90;;;;;;5118546;27;20047;-66
2022/11/06 01:29:46;;;;;;;7.75;4.40;;;10.10;99.90;;;;;;5117757;27;20050;-66
2022/11/06 01:32:12;;;;;;;6.78;4.45;;;10.10;99.90;;;;;;5136695;27;20047;-66
2022/11/06 01:34:38;;;;;;;10.60;4.97;;;9.90;99.90;;;;;;5101355;27;20043;-66
2022/11/06 01:37:04;;;;;;;9.93;5.20;;;10.10;99.90;;;;;;5136687;27;20455;-67
2022/11/06 01:39:29;;;;;;;6.18;4.57;;;10.00;99.90;;;;;;5136578;27;20470;-66
2022/11/06 01:41:55;;;;;;;7.15;4.70;;;9.80;99.90;;;;;;5136399;27;20046;-66
2022/11/06 01:45:08;;;;;;;7.88;5.20;;;10.40;99.90;;;;;;5136305;27;20047;-66
2022/11/06 01:47:34;;;;;;;7.53;4.55;;;9.80;99.90;;;;;;5136207;27;20053;-66
2022/11/06 01:50:08;;;;;;;10.20;5.18;;;9.80;99.90;;;;;;5117889;27;20044;-66
2022/11/06 01:52:35;;;;;;;7.32;4.53;;;9.80;99.90;;;;;;5136366;27;20122;-67
2022/11/06 01:55:18;;;;;;;7.30;4.43;;;9.80;99.90;;;;;;5100753;27;20055;-66
2022/11/06 01:57:45;;;;;;;8.18;4.93;;;9.80;99.90;;;;;;5135349;27;20231;-67
2022/11/06 02:00:11;;;;;;;8.68;5.15;;;9.90;99.90;;;;;;5136177;27;20050;-66
2022/11/06 02:02:38;;;;;;;8.13;5.07;;;9.80;99.90;;;;;;5135947;27;20525;-66
2022/11/06 02:05:04;;;;;;;10.05;5.00;;;9.90;99.90;;;;;;5135940;27;20107;-66
2022/11/06 02:07:30;;;;;;;10.25;5.07;;;9.70;99.90;;;;;;5117521;27;20104;-66
2022/11/06 02:09:55;;;;;;;8.73;5.10;;;9.70;99.90;;;;;;5117059;27;20047;-66
2022/11/06 02:12:31;;;;;;;8.63;4.75;;;9.60;99.90;;;;;;5100548;27;20051;-66
2022/11/06 02:15:03;;;;;;;7.55;5.03;;;9.70;99.90;;;;;;5118201;27;20046;-66
2022/11/06 02:17:54;;;;;;;9.75;4.80;;;9.60;99.90;;;;;;5135816;27;20497;-66
2022/11/06 02:20:29;;;;;;;8.45;5.72;;;9.70;99.90;;;;;;5100069;27;20171;-66
2022/11/06 02:23:14;;;;;;;10.13;5.20;;;9.60;99.90;;;;;;5117264;27;20138;-66
2022/11/06 02:25:54;;;;;;;8.55;5.00;;;9.70;99.90;;;;;;5135674;27;20428;-66
2022/11/06 02:28:29;;;;;;;7.40;4.85;;;9.70;99.90;;;;;;5134781;27;20039;-66
2022/11/06 02:31:00;;;;;;;7.35;5.30;;;9.70;99.90;;;;;;5100350;27;20077;-67
2022/11/06 02:33:33;;;;;;;6.93;5.45;;;9.70;99.90;;;;;;5135564;27;20105;-66
2022/11/06 02:36:07;;;;;;;11.90;5.95;;;10.50;99.90;;;;;;5117141;27;20074;-66
2022/11/06 02:38:52;;;;;;;9.57;5.82;;;9.70;99.90;;;;;;5117223;27;20398;-66
2022/11/06 02:41:27;;;;;;;10.30;5.60;;;9.80;99.90;;;;;;5135277;27;20062;-66
2022/11/06 02:43:56;;;;;;;9.07;5.05;;;9.70;99.90;;;;;;5117204;27;20043;-66
2022/11/06 02:46:32;;;;;;;11.73;6.35;;;9.70;99.90;;;;;;5135034;27;20126;-66
2022/11/06 02:49:18;;;;;;;7.97;5.13;;;9.60;99.90;;;;;;5135046;27;20035;-66
2022/11/06 02:51:49;;;;;;;7.97;5.47;;;9.70;99.90;;;;;;5134828;27;20043;-66
2022/11/06 02:54:18;;;;;;;13.35;5.82;;;9.70;99.90;;;;;;5135506;27;20100;-66
2022/11/06 02:56:47;;;;;;;10.68;6.10;;;10.30;99.90;;;;;;5135043;27;20043;-67
2022/11/06 02:59:23;;;;;;;10.23;6.38;;;9.60;99.90;;;;;;5115945;27;20403;-67
2022/11/06 03:01:57;;;;;;;8.68;5.75;;;9.60;99.90;;;;;;5116527;27;20405;-67
2022/11/06 03:04:30;;;;;;;9.60;6.38;;;9.70;99.90;;;;;;5134884;27;20051;-67
2022/11/06 03:07:11;;;;;;;12.10;5.55;;;9.60;99.90;;;;;;5134888;27;20051;-67
2022/11/06 03:09:37;;;;;;;8.88;6.30;;;9.90;99.90;;;;;;5135138;27;20444;-66
2022/11/06 03:12:26;;;;;;;11.25;5.82;;;9.60;99.90;;;;;;5134443;27;20051;-67
2022/11/06 03:14:57;;;;;;;12.02;6.22;;;9.60;99.90;;;;;;5134292;27;20035;-67
2022/11/06 03:17:52;;;;;;;10.00;6.30;;;9.60;99.90;;;;;;5100010;28;20103;-68
2022/11/06 03:20:30;;;;;;;8.40;5.57;;;9.60;99.90;;;;;;5134005;27;20385;-67
2022/11/06 03:23:10;;;;;;;10.43;6.07;;;9.90;99.90;;;;;;5134344;27;20043;-66
2022/11/06 03:25:43;;;;;;;9.13;5.75;;;9.50;99.90;;;;;;5135263;27;20094;-67
2022/11/06 03:28:21;;;;;;;8.77;5.27;;;9.50;99.90;;;;;;5133685;28;20040;-66
2022/11/06 03:30:53;;;;;;;8.95;5.85;;;9.60;99.90;;;;;;5134437;27;20046;-67
2022/11/06 03:33:48;;;;;;;9.93;5.57;;;9.70;99.90;;;;;;5116042;28;20380;-67
2022/11/06 03:36:32;;;;;;;9.63;6.15;;;9.60;99.90;;;;;;5134531;28;20418;-67
2022/11/06 03:39:20;;;;;;;11.35;7.22;;;9.50;99.90;;;;;;5134510;28;20125;-67
2022/11/06 03:42:01;;;;;;;14.70;7.75;;;9.60;99.90;;;;;;5134295;28;20104;-66
2022/11/06 03:44:29;;;;;;;10.77;6.35;;;9.50;99.90;;;;;;5135010;28;20055;-66
2022/11/06 03:47:19;;;;;;;9.68;6.00;;;9.90;99.90;;;;;;5134318;28;20047;-66
2022/11/06 03:50:20;;;;;;;7.75;5.85;;;9.50;99.90;;;;;;5115927;28;20050;-66
2022/11/06 03:52:56;;;;;;;9.40;6.00;;;9.50;99.90;;;;;;5129283;28;20501;-66
2022/11/06 03:55:27;;;;;;;9.57;6.00;;;9.50;99.90;;;;;;5134584;28;20050;-66
2022/11/06 03:58:12;;;;;;;10.90;5.75;;;9.80;99.90;;;;;;5133704;28;20039;-67
2022/11/06 04:00:40;;;;;;;9.98;5.93;;;9.70;99.90;;;;;;5134189;28;20043;-66
2022/11/06 04:03:23;;;;;;;9.98;5.95;;;9.70;99.90;;;;;;5134214;28;20074;-66
2022/11/06 04:06:12;;;;;;;9.82;5.75;;;9.70;99.90;;;;;;5116260;28;20367;-66
2022/11/06 04:14:14;;;;;;;8.45;6.00;;;9.50;99.90;;;;;;5134261;28;20501;-66
2022/11/06 04:16:48;;;;;;;9.07;5.43;;;9.40;99.90;;;;;;5115982;28;20039;-66
2022/11/06 04:19:16;;;;;;;8.38;5.80;;;9.90;99.90;;;;;;5134018;28;20080;-66
2022/11/06 04:22:09;;;;;;;9.23;5.63;;;9.60;99.90;;;;;;5134030;28;20081;-66
2022/11/06 04:28:05;;;;;;;7.43;4.68;;;9.40;99.90;;;;;;5133176;28;20432;-67
2022/11/06 04:30:45;;;;;;;9.00;4.90;;;9.70;99.90;;;;;;5133996;28;20051;-66
2022/11/06 04:33:37;;;;;;;9.13;5.15;;;9.50;99.90;;;;;;5134068;28;20375;-66
2022/11/06 04:36:12;;;;;;;7.40;5.25;;;9.40;99.90;;;;;;5097458;28;20051;-66
2022/11/06 04:39:09;;;;;;;8.52;5.07;;;9.40;99.90;;;;;;5115482;28;20119;-66
2022/11/06 04:42:06;;;;;;;7.80;5.22;;;9.20;99.90;;;;;;5114695;28;20107;-66
2022/11/06 04:44:46;;;;;;;6.60;4.93;;;9.60;99.90;;;;;;5096380;27;20055;-66
2022/11/06 04:47:17;;;;;;;11.68;4.72;;;9.90;99.90;;;;;;5137450;27;20095;-66
2022/11/06 04:49:44;;;;;;;7.95;4.40;;;9.40;99.90;;;;;;5137745;27;20180;-66
2022/11/06 04:52:16;;;;;;;6.20;4.07;;;9.80;99.90;;;;;;5137536;27;20070;-66
2022/11/06 04:54:43;;;;;;;6.38;4.20;;;9.70;99.90;;;;;;5137266;27;20043;-66
2022/11/06 04:57:09;;;;;;;7.22;4.90;;;9.30;99.90;;;;;;5137351;27;20050;-67
2022/11/06 04:59:36;;;;;;;7.55;4.72;;;9.40;99.90;;;;;;5136589;27;20570;-66
2022/11/06 05:02:02;;;;;;;7.18;4.95;;;9.40;99.90;;;;;;5118977;27;20043;-66
2022/11/06 05:04:28;;;;;;;5.57;4.00;;;9.70;99.90;;;;;;5137155;27;20138;-66
2022/11/06 05:06:54;;;;;;;8.80;4.55;;;9.20;99.90;;;;;;5137046;27;20400;-66
2022/11/06 05:09:19;;;;;;;9.13;3.97;;;9.50;99.90;;;;;;5118794;27;20062;-66
2022/11/06 05:11:45;;;;;;;7.78;4.18;;;9.40;99.90;;;;;;5137220;27;20138;-66
2022/11/06 05:14:11;;;;;;;9.05;4.50;;;9.40;99.90;;;;;;5118439;27;20137;-66
2022/11/06 05:16:36;;;;;;;8.93;4.40;;;9.50;99.90;;;;;;5119252;27;20054;-66
2022/11/06 05:19:02;;;;;;;7.88;4.25;;;9.30;99.90;;;;;;5101491;27;20031;-66
2022/11/06 05:24:12;;;;;;;8.90;3.83;;;9.50;99.90;;;;;;5136486;27;20047;-66
2022/11/06 05:26:38;;;;;;;6.75;3.78;;;9.50;99.90;;;;;;5137375;27;20047;-66
2022/11/06 05:29:04;;;;;;;7.78;4.18;;;9.60;99.90;;;;;;5136038;27;20035;-66
2022/11/06 05:31:30;;;;;;;9.68;3.90;;;9.60;99.90;;;;;;5101514;27;20050;-65
2022/11/06 05:33:55;;;;;;;7.70;3.97;;;9.70;99.90;;;;;;5136638;27;20039;-66
2022/11/06 05:36:21;;;;;;;6.00;4.10;;;9.50;99.90;;;;;;5118139;27;20043;-66
2022/11/06 05:38:47;;;;;;;4.43;3.28;;;9.50;99.90;;;;;;5084420;27;20047;-66
2022/11/06 05:41:13;;;;;;;6.72;3.47;;;9.70;99.90;;;;;;5136500;27;20051;-66
2022/11/06 05:43:38;;;;;;;7.10;3.38;;;9.50;99.90;;;;;;5136407;27;20039;-66
2022/11/06 05:46:04;;;;;;;6.50;3.65;;;9.80;99.90;;;;;;5118121;27;20130;-66
2022/11/06 05:48:30;;;;;;;5.72;3.25;;;9.70;99.90;;;;;;5136286;27;20039;-66
2022/11/06 05:51:00;;;;;;;10.45;3.65;;;9.50;99.90;;;;;;5117793;27;20039;-66
2022/11/06 05:53:26;;;;;;;6.57;3.67;;;9.70;99.90;;;;;;5101293;27;20055;-66
2022/11/06 05:55:52;;;;;;;6.80;3.85;;;9.50;99.90;;;;;;5117184;27;20050;-66
2022/11/06 05:58:18;;;;;;;6.93;3.65;;;9.50;99.90;;;;;;5135556;27;20087;-66
2022/11/06 06:00:44;;;;;;;6.10;3.25;;;9.60;99.90;;;;;;5135942;27;20051;-66
2022/11/06 06:03:11;;;;;;;9.20;3.63;;;9.50;99.90;;;;;;5117639;27;20050;-66
2022/11/06 06:05:36;;;;;;;8.00;3.85;;;9.70;99.90;;;;;;5122584;27;20050;-66
2022/11/06 06:08:03;;;;;;;9.13;3.88;;;10.10;99.90;;;;;;5137921;27;20087;-66
2022/11/06 06:10:28;;;;;;;5.80;4.03;;;9.40;99.90;;;;;;5138098;27;20043;-66
2022/11/06 06:12:54;;;;;;;6.75;2.90;;;10.20;99.90;;;;;;5138026;27;20054;-66
2022/11/06 06:15:20;;;;;;;6.88;3.60;;;9.50;99.90;;;;;;5138555;27;20085;-66
2022/11/06 06:17:45;;;;;;;6.30;3.15;;;9.80;99.90;;;;;;5138078;27;20042;-66
2022/11/06 06:20:11;;;;;;;4.90;3.20;;;9.80;99.90;;;;;;5103863;27;20043;-66
2022/11/06 06:22:37;;;;;;;6.47;3.28;;;9.50;99.90;;;;;;5156083;27;20129;-66
2022/11/06 06:25:03;;;;;;;11.07;3.28;;;9.40;99.90;;;;;;5138176;27;20122;-66
2022/11/06 06:27:30;;;;;;;5.15;3.00;;;9.50;99.90;;;;;;5156196;27;20085;-66
2022/11/06 06:29:55;;;;;;;5.95;2.47;;;9.40;99.90;;;;;;5120106;27;20039;-66
2022/11/06 06:32:21;;;;;;;8.50;2.83;;;9.80;99.90;;;;;;5137686;27;20114;-66
2022/11/06 06:34:47;;;;;;;9.75;2.50;;;9.50;99.90;;;;;;5155951;27;20050;-66
2022/11/06 06:37:13;;;;;;;7.30;2.80;;;9.80;99.90;;;;;;5155762;27;20098;-66
2022/11/06 06:39:39;;;;;;;5.07;2.17;;;9.50;99.90;;;;;;5155977;27;20066;-66
2022/11/06 06:42:04;;;;;;;5.03;2.30;;;9.50;99.90;;;;;;5156039;27;20494;-66
2022/11/06 06:44:30;;;;;;;6.90;2.92;;;9.40;99.90;;;;;;5137713;27;20046;-66
2022/11/06 06:46:56;;;;;;;8.25;2.70;;;9.50;99.90;;;;;;5137662;27;20047;-66
2022/11/06 06:49:22;;;;;;;7.20;2.55;;;9.90;99.90;;;;;;5155750;27;20049;-66
2022/11/06 06:51:48;;;;;;;8.15;2.25;;;9.40;99.90;;;;;;5136909;27;20065;-67
2022/11/06 06:54:14;;;;;;;5.22;2.22;;;9.50;99.90;;;;;;5155763;27;20099;-66
2022/11/06 06:56:40;;;;;;;4.63;2.25;;;10.10;99.90;;;;;;5155764;27;20423;-66
2022/11/06 06:59:06;;;;;;;4.43;2.22;;;9.60;99.90;;;;;;5154979;27;20458;-66
2022/11/06 07:01:32;;;;;;;6.43;2.58;;;9.70;99.90;;;;;;5155453;27;20497;-66
2022/11/06 07:03:58;;;;;;;5.25;2.55;;;9.80;99.90;;;;;;5155589;27;20049;-66
2022/11/06 07:06:23;;;;;;;6.78;2.40;;;9.90;99.90;;;;;;5136201;27;20125;-66
2022/11/06 07:08:53;;;;;;;6.47;2.35;;;9.80;99.90;;;;;;5155500;27;20038;-66
2022/11/06 07:11:19;;;;;;;4.88;2.13;;;9.50;99.90;;;;;;5155294;27;20039;-66
2022/11/06 07:13:44;;;;;;;4.55;2.22;;;9.80;99.90;;;;;;5155230;27;20107;-66
2022/11/06 07:16:10;;;;;;;6.15;2.33;;;10.40;99.90;;;;;;5137046;27;20050;-66
2022/11/06 07:18:38;;;;;;;6.28;2.35;;;9.60;99.90;;;;;;5155352;27;20105;-66
2022/11/06 07:21:05;;;;;;;5.57;1.92;;;9.80;99.90;;;;;;5155337;27;20125;-66
2022/11/06 07:23:31;;;;;;;6.88;2.78;;;9.60;99.90;;;;;;5155314;27;20058;-66
2022/11/06 07:25:57;;;;;;;4.07;2.38;;;9.80;99.90;;;;;;5119649;27;20042;-66
2022/11/06 07:28:22;;;;;;;5.68;2.25;;;9.60;99.90;;;;;;5154540;27;20039;-66
2022/11/06 07:30:48;;;;;;;4.40;1.70;;;9.70;99.90;;;;;;5119523;27;20047;-66
2022/11/06 07:33:14;;;;;;;6.00;1.90;;;9.50;99.90;;;;;;5155021;27;20057;-66
2022/11/06 07:35:39;;;;;;;6.03;1.80;;;9.80;99.90;;;;;;5119342;27;20129;-66
2022/11/06 07:38:06;;;;;;;5.10;1.80;;;9.80;99.90;;;;;;5137081;27;20050;-66
2022/11/06 07:40:33;;;;;;;3.90;1.60;;;9.80;99.90;;;;;;5136519;27;20042;-66
2022/11/06 07:43:06;;;;;;;4.70;1.70;;;9.90;99.90;;;;;;5154814;27;20049;-66
2022/11/06 07:45:32;;;;;;;;;;;9.90;99.90;;;;;;5155484;27;20057;-66
2022/11/06 07:47:58;;;;;;;5.05;2.00;;;9.70;99.90;;;;;;5154944;27;19918;-66
2022/11/06 07:50:24;;;;;;;4.82;1.40;;;9.80;99.90;;;;;;5136649;27;20038;-66
2022/11/06 07:52:50;;;;;;;3.35;1.40;;;10.10;99.90;;;;;;5154970;27;20086;-66
2022/11/06 07:55:16;;;;;;;6.97;1.90;;;10.00;99.90;;;;;;5136666;27;20250;-66
2022/11/06 07:57:41;;;;;;;3.63;1.83;;;9.60;99.90;;;;;;5154867;27;20039;-66
2022/11/06 08:00:08;;;;;;;6.07;1.42;;;9.70;99.90;;;;;;5154419;27;20065;-66
2022/11/06 08:02:33;;;;;;;3.53;1.52;;;9.70;99.90;;;;;;5136549;27;20479;-66
2022/11/06 08:04:59;;;;;;;4.55;1.77;;;9.80;99.90;;;;;;5154986;27;20050;-66
2022/11/06 08:07:25;;;;;;;4.90;1.63;;;9.80;99.90;;;;;;5155187;27;20504;-66
2022/11/06 08:09:51;;;;;;;3.17;1.60;;;10.10;99.90;;;;;;5154785;27;20035;-66
2022/11/06 08:12:16;;;;;;;2.75;1.30;;;10.20;99.90;;;;;;5154834;27;20070;-66
2022/11/06 08:14:42;;;;;;;5.82;1.40;;;9.90;99.90;;;;;;5136053;27;20490;-66
2022/11/06 08:17:08;;;;;;;5.03;1.40;;;10.10;99.90;;;;;;5154884;27;20375;-66
2022/11/06 08:19:33;;;;;;;4.22;1.42;;;10.20;99.90;;;;;;5158888;27;20051;-66
2022/11/06 08:21:59;;;;;;;3.97;1.13;;;9.90;99.90;;;;;;5158744;27;20478;-66
2022/11/06 08:24:25;;;;;;;4.10;1.45;;;10.20;99.90;;;;;;5158697;27;20094;-66
2022/11/06 08:26:50;;;;;;;6.95;1.52;;;9.90;99.90;;;;;;5158737;27;20094;-66
2022/11/06 08:29:16;;;;;;;5.00;1.67;;;10.10;99.90;;;;;;5157855;27;20046;-66
2022/11/06 08:31:42;;;;;;;4.45;1.60;;;9.80;99.90;;;;;;5158318;27;20474;-66
2022/11/06 08:34:08;;;;;;;3.30;1.30;;;10.30;99.90;;;;;;5158268;27;20046;-66
2022/11/06 08:36:41;;;;;;;4.95;1.38;;;9.90;99.90;;;;;;5140135;27;20057;-66
2022/11/06 08:39:07;;;;;;;;;;;10.20;99.90;;;;;;5141025;27;20089;-66
2022/11/06 08:41:33;;;;;;;6.43;1.50;;;10.00;99.90;;;;;;5158393;27;20337;-66
2022/11/06 08:43:59;;;;;;;3.15;1.20;;;10.30;99.90;;;;;;5139931;27;20047;-66
2022/11/06 08:46:24;;;;;;;6.30;1.30;;;10.10;99.90;;;;;;5139682;27;20399;-66
2022/11/06 08:48:50;;;;;;;4.70;1.40;;;10.10;99.90;;;;;;5142429;27;20046;-67
2022/11/06 08:51:16;;;;;;;4.63;1.30;;;10.10;99.90;;;;;;5136937;27;20082;-67
2022/11/06 08:53:41;;;;;;;5.20;1.30;;;10.30;99.90;;;;;;5137432;27;20070;-66
2022/11/06 08:56:07;;;;;;;4.13;1.67;;;10.30;99.90;;;;;;5139908;27;20087;-68
2022/11/06 08:58:33;;;;;;;4.30;1.80;;;10.10;99.90;;;;;;5111033;27;20043;-68
2022/11/06 09:00:59;;;;;;;6.72;2.97;;;10.20;99.90;;;;;;5145130;27;20489;-67
2022/11/06 09:03:25;;;;;;;4.43;2.28;;;10.50;99.90;;;;;;5145855;27;20122;-67
2022/11/06 09:05:50;;;;;;;11.45;10.32;;;10.20;99.90;;;;;;5148811;27;20486;-66
2022/11/06 09:08:16;;;;;;;21.30;19.35;;;10.40;99.90;;;;;;5147391;27;20101;-67
2022/11/06 09:10:42;;;;;;;23.73;21.52;;;10.50;99.90;;;;;;5148030;27;20038;-67
2022/11/06 09:13:09;;;;;;;10.75;9.70;;;10.20;99.90;;;;;;5147155;27;20057;-67
2022/11/06 09:15:36;;;;;;;14.55;13.05;;;10.30;99.90;;;;;;5146701;27;20490;-67
2022/11/06 09:18:02;;;;;;;11.57;9.15;;;10.40;99.90;;;;;;5145995;27;20126;-67
2022/11/06 09:20:27;;;;;;;14.60;13.13;;;10.20;99.90;;;;;;5129309;27;20131;-67
2022/11/06 09:22:54;;;;;;;7.65;6.75;;;10.20;99.90;;;;;;5148465;27;20122;-67
2022/11/06 09:25:20;;;;;;;12.43;11.40;;;10.20;99.90;;;;;;5110030;27;20588;-67
2022/11/06 09:27:48;;;;;;;9.70;7.53;;;10.40;99.90;;;;;;5145488;27;20387;-67
2022/11/06 09:30:17;;;;;;;10.10;6.88;;;10.30;99.90;;;;;;5144797;27;20497;-67
2022/11/06 09:32:54;;;;;;;3.70;3.03;;;10.30;99.90;;;;;;5147657;27;20042;-67
2022/11/06 09:35:21;;;;;;;5.95;2.65;;;10.20;99.90;;;;;;5147522;27;20043;-67
2022/11/06 09:37:47;;;;;;;4.05;2.40;;;10.40;99.90;;;;;;5145529;27;20130;-67
2022/11/06 09:40:24;;;;;;;5.47;2.80;;;10.30;99.90;;;;;;5127885;27;20490;-67
2022/11/06 09:43:13;;;;;;;7.78;3.20;;;10.50;99.90;;;;;;5145735;27;20078;-67
2022/11/06 09:45:40;;;;;;;5.25;3.85;;;10.30;99.90;;;;;;5147141;27;20041;-67
2022/11/06 09:48:08;;;;;;;6.25;2.33;;;10.30;99.90;;;;;;5145012;27;20046;-67
2022/11/06 09:50:39;;;;;;;3.58;1.58;;;10.40;99.90;;;;;;5129541;27;20050;-68
2022/11/06 09:53:15;;;;;;;3.65;1.77;;;10.40;99.90;;;;;;5126693;27;20367;-67
2022/11/06 09:55:43;;;;;;;3.47;1.48;;;10.40;99.90;;;;;;5145154;27;20051;-67
2022/11/06 09:58:27;;;;;;;4.15;2.22;;;10.40;99.90;;;;;;5127579;27;20047;-68
2022/11/06 10:00:53;;;;;;;9.35;5.75;;;10.50;99.90;;;;;;5146060;27;20050;-67
2022/11/06 10:03:24;;;;;;;4.47;3.70;;;10.60;99.90;;;;;;5146344;27;20587;-68
2022/11/06 10:05:52;;;;;;;5.70;4.60;;;10.70;99.90;;;;;;5123962;27;20042;-67
2022/11/06 10:08:25;;;;;;;5.32;2.22;;;10.70;99.90;;;;;;5127197;27;20043;-67
2022/11/06 10:11:02;;;;;;;4.72;1.80;;;10.70;99.90;;;;;;5145007;27;20039;-66
2022/11/06 10:13:58;;;;;;;5.85;2.60;;;10.80;99.90;;;;;;5108739;27;20111;-67
2022/11/06 10:16:45;;;;;;;5.57;3.35;;;10.90;99.90;;;;;;5146736;27;20051;-67
2022/11/06 10:19:30;;;;;;;3.67;2.53;;;11.00;99.90;;;;;;5145060;27;20042;-67
2022/11/06 10:22:06;;;;;;;6.00;2.40;;;10.90;99.90;;;;;;5145233;27;20487;-67
2022/11/06 10:24:43;;;;;;;5.13;4.30;;;11.00;99.90;;;;;;5144788;27;20051;-68
2022/11/06 10:27:19;;;;;;;5.75;4.60;;;11.10;99.90;;;;;;5126461;27;20616;-67
2022/11/06 10:29:45;;;;;;;5.22;4.70;;;11.00;99.90;;;;;;5143607;27;20039;-67
2022/11/06 10:32:53;;;;;;;3.20;1.92;;;11.10;99.90;;;;;;5145276;27;20435;-67
2022/11/06 10:35:29;;;;;;;2.75;2.08;;;11.00;99.90;;;;;;5145854;27;20046;-67
2022/11/06 10:38:13;;;;;;;4.30;2.53;;;11.10;99.90;;;;;;5127131;27;20119;-66
2022/11/06 10:40:43;;;;;;;2.47;1.10;;;11.10;99.90;;;;;;5127491;27;20047;-67
2022/11/06 10:43:25;;;;;;;6.97;3.10;;;11.20;99.90;;;;;;5143480;27;20050;-67
2022/11/06 10:45:57;;;;;;;9.02;4.22;;;11.20;99.90;;;;;;5144654;27;20039;-67
2022/11/06 10:48:28;;;;;;;4.13;2.55;;;11.20;99.90;;;;;;5143478;27;20486;-67
2022/11/06 10:51:14;;;;;;;8.88;2.30;;;11.30;99.90;;;;;;5145026;27;20045;-67
2022/11/06 10:54:07;;;;;;;4.93;2.25;;;11.50;99.90;;;;;;5102619;27;20442;-67
2022/11/06 10:57:15;;;;;;;4.45;2.20;;;11.20;99.90;;;;;;5144600;27;20043;-67
2022/11/06 10:59:41;;;;;;;6.45;2.20;;;11.20;99.90;;;;;;5131826;27;20564;-67
2022/11/06 11:02:32;;;;;;;4.03;3.42;;;11.10;99.90;;;;;;5143165;27;20168;-67
2022/11/06 11:04:57;;;;;;;6.05;5.45;;;11.10;99.90;;;;;;5137249;27;20113;-67
2022/11/06 11:07:28;;;;;;;10.90;9.15;;;11.10;99.90;;;;;;5143064;27;20051;-67
2022/11/06 11:09:53;;;;;;;5.20;2.80;;;11.10;99.90;;;;;;5142730;27;20031;-67
2022/11/06 11:12:24;;;;;;;4.95;3.60;;;11.10;99.90;;;;;;5141690;27;20103;-68
2022/11/06 11:15:18;;;;;;;12.43;9.88;;;11.10;99.90;;;;;;5139760;27;20050;-67
2022/11/06 11:18:03;;;;;;;;;;;11.10;99.90;;;;;;5142452;27;20044;-68
2022/11/06 11:20:34;;;;;;;15.85;14.20;;;11.00;99.90;;;;;;5140035;27;19976;-68
2022/11/06 11:23:15;;;;;;;7.47;6.78;;;11.20;99.90;;;;;;5139655;27;20289;-67
2022/11/06 11:26:16;;;;;;;10.52;9.43;;;11.10;99.90;;;;;;5141188;27;20047;-67
2022/11/06 11:28:48;;;;;;;4.57;3.20;;;11.10;99.90;;;;;;5138747;27;20525;-67
2022/11/06 11:31:16;;;;;;;6.13;3.15;;;11.10;99.90;;;;;;5140751;27;20030;-67
2022/11/06 11:33:54;;;;;;;6.55;2.38;;;11.10;99.90;;;;;;5141761;27;20058;-68
2022/11/06 11:36:20;;;;;;;16.10;14.30;;;11.00;99.90;;;;;;5122178;27;20043;-68
2022/11/06 11:38:46;;;;;;;19.00;17.48;;;11.00;99.90;;;;;;5139452;27;20035;-67
2022/11/06 11:41:18;;;;;;;14.38;12.95;;;11.10;99.90;;;;;;5140975;27;20485;-67
2022/11/06 11:44:05;;;;;;;8.43;5.60;;;11.10;99.90;;;;;;5141795;27;20042;-67
2022/11/06 11:46:32;;;;;;;5.70;2.80;;;11.20;99.90;;;;;;5122718;27;20055;-67
2022/11/06 11:48:58;;;;;;;10.20;7.40;;;11.20;99.90;;;;;;5143662;27;20114;-66
2022/11/06 11:51:34;;;;;;;12.68;10.70;;;11.20;99.90;;;;;;5129242;27;20085;-67
2022/11/06 11:54:11;;;;;;;10.02;7.68;;;11.10;99.90;;;;;;5148071;27;20122;-66
2022/11/06 11:56:56;;;;;;;4.38;3.10;;;11.30;99.90;;;;;;5147197;27;20050;-66
2022/11/06 11:59:44;;;;;;;4.07;2.60;;;11.30;99.90;;;;;;5147498;27;20500;-66
2022/11/06 12:02:21;;;;;;;3.50;1.70;;;11.30;99.90;;;;;;5114013;27;20062;-66
2022/11/06 12:04:51;;;;;;;5.38;1.83;;;11.30;99.90;;;;;;5128870;27;20047;-66
2022/11/06 12:07:35;;;;;;;7.00;2.92;;;11.40;99.90;;;;;;5147043;27;20043;-66
2022/11/06 12:10:14;;;;;;;3.92;1.88;;;11.30;99.90;;;;;;5148822;27;20114;-66
2022/11/06 12:12:48;;;;;;;5.40;2.92;;;11.40;99.90;;;;;;5148618;27;20043;-66
2022/11/06 12:15:37;;;;;;;4.00;1.80;;;11.30;99.90;;;;;;5147724;27;20058;-66
2022/11/06 12:18:08;;;;;;;4.07;1.73;;;11.40;99.90;;;;;;5149062;27;20519;-66
2022/11/06 12:20:57;;;;;;;6.03;2.22;;;11.60;99.90;;;;;;5129308;27;20051;-66
2022/11/06 12:23:33;;;;;;;4.07;1.50;;;11.40;99.90;;;;;;5148640;27;20043;-66
2022/11/06 12:26:08;;;;;;;3.55;1.55;;;11.40;99.90;;;;;;5148273;27;20443;-66
2022/11/06 12:28:36;;;;;;;3.42;1.67;;;11.50;99.90;;;;;;5146774;27;20042;-67
2022/11/06 12:31:10;;;;;;;3.00;1.77;;;11.50;99.90;;;;;;5128369;27;20041;-66
2022/11/06 12:33:38;;;;;;;4.38;1.42;;;11.50;99.90;;;;;;5146728;27;20038;-66
2022/11/06 12:36:07;;;;;;;5.15;1.00;;;11.60;99.90;;;;;;5128114;27;20058;-66
2022/11/06 12:39:00;;;;;;;4.82;1.40;;;11.50;99.90;;;;;;5148044;27;20035;-66
2022/11/06 12:41:33;;;;;;;3.78;0.90;;;11.60;99.90;;;;;;5156211;27;20047;-66
2022/11/06 12:43:58;;;;;;;;;;;11.60;99.90;;;;;;5148406;27;20160;-66
2022/11/06 12:46:30;;;;;;;3.30;2.15;;;11.70;99.90;;;;;;5146058;27;19958;-66
2022/11/06 12:49:01;;;;;;;4.30;1.70;;;11.70;99.90;;;;;;5146968;27;20386;-66
2022/11/06 12:51:46;;;;;;;4.35;1.80;;;11.80;99.90;;;;;;5146197;27;20583;-67
2022/11/06 12:55:07;;;;;;;3.13;1.10;;;11.90;99.90;;;;;;5129877;27;20042;-68
2022/11/06 12:57:57;;;;;;;4.95;3.15;;;11.90;99.90;;;;;;5045489;28;20531;-67
2022/11/06 13:00:36;;;;;;;3.03;1.83;;;12.10;99.90;;;;;;5049334;28;20123;-68
2022/11/06 13:03:26;;;;;;;19.77;17.95;;;11.90;99.90;;;;;;5120786;27;20062;-67
2022/11/06 13:06:10;;;;;;;4.57;1.70;;;11.90;99.90;;;;;;5127442;27;20046;-68
2022/11/06 13:08:36;;;;;;;3.65;1.92;;;12.00;99.90;;;;;;5147128;27;20417;-68
2022/11/06 13:11:24;;;;;;;4.63;1.70;;;12.40;99.90;;;;;;5127625;27;20171;-68
2022/11/06 13:13:59;;;;;;;5.30;1.15;;;12.00;99.90;;;;;;5136401;27;20054;-68
2022/11/06 13:16:44;;;;;;;7.43;5.43;;;11.90;99.90;;;;;;5145747;27;20539;-68
2022/11/06 13:19:32;;;;;;;7.75;6.20;;;11.80;99.90;;;;;;5146035;27;20040;-68
2022/11/06 13:22:07;;;;;;;3.70;2.15;;;11.90;99.90;;;;;;5147050;27;20386;-70
2022/11/06 13:24:58;;;;;;;3.40;2.00;;;11.90;99.90;;;;;;5152195;27;20043;-68
2022/11/06 13:27:36;;;;;;;3.20;1.15;;;11.80;99.90;;;;;;5146539;27;20083;-69
2022/11/06 13:30:10;;;;;;;7.82;2.03;;;11.80;99.90;;;;;;5147047;27;20043;-70